Time;durP1;ratioP1;P1;durP2;ratioP2;P2;SDS_P1;SDS_P2;PMS_P1;PMS_P2;Temp;Humidity;BMP_temperature;BMP_pressure;BME280_temperature;BME280_humidity;BME280_pressure;Samples;Min_cycle;Max_cycle;Signal;HPM_P1;HPM_P2
2023/07/27 00:00:57;;;;;;;9.80;8.80;;;;;;;21.55;59.69;94007.66;5224644;22;20098;-81
2023/07/27 00:03:00;;;;;;;10.10;9.10;;;;;;;21.48;60.03;94017.69;5216763;22;20023;-80
2023/07/27 00:05:03;;;;;;;10.47;9.43;;;;;;;21.26;61.05;94025.59;5216132;22;20030;-81
2023/07/27 00:07:05;;;;;;;9.65;8.82;;;;;;;21.06;61.73;94021.53;5190022;22;20066;-84
2023/07/27 00:09:07;;;;;;;10.85;9.15;;;;;;;20.62;62.87;94031.13;5217546;22;20023;-84
2023/07/27 00:11:09;;;;;;;12.65;9.45;;;;;;;20.62;62.86;94021.28;5215670;22;20118;-81
2023/07/27 00:13:11;;;;;;;9.70;8.80;;;;;;;20.60;62.88;94027.88;5187186;22;20034;-82
2023/07/27 00:15:13;;;;;;;8.30;7.60;;;;;;;20.55;62.34;94033.91;5187029;22;20031;-81
2023/07/27 00:17:15;;;;;;;8.00;6.93;;;;;;;20.52;61.35;94029.06;5214339;22;20024;-82
2023/07/27 00:19:17;;;;;;;7.40;6.60;;;;;;;20.50;60.58;94023.16;5185882;22;20075;-81
2023/07/27 00:21:19;;;;;;;8.73;6.40;;;;;;;20.39;60.29;94027.47;5187110;22;20031;-80
2023/07/27 00:23:21;;;;;;;12.68;5.90;;;;;;;20.39;59.76;94016.00;5214170;22;20023;-81
2023/07/27 00:25:23;;;;;;;6.20;5.60;;;;;;;20.37;60.14;94010.94;5187399;22;20051;-81
2023/07/27 00:27:25;;;;;;;6.75;6.03;;;;;;;20.53;59.90;94013.91;5186964;22;20024;-80
2023/07/27 00:29:27;;;;;;;7.38;5.72;;;;;;;20.52;59.63;94025.56;5187258;22;20449;-80
2023/07/27 00:31:29;;;;;;;8.02;5.45;;;;;;;20.48;59.69;94024.44;5212491;22;20030;-82
2023/07/27 00:33:30;;;;;;;9.50;5.00;;;;;;;20.44;59.53;94016.94;5214567;22;20050;-82
2023/07/27 00:35:32;;;;;;;5.85;5.18;;;;;;;20.40;59.52;94009.66;5186647;22;20109;-81
2023/07/27 00:37:34;;;;;;;7.85;5.85;;;;;;;20.32;59.67;94013.50;5217104;22;20015;-80
2023/07/27 00:39:36;;;;;;;5.50;4.80;;;;;;;20.28;59.47;94020.31;5216930;22;20098;-80
2023/07/27 00:41:42;;;;;;;5.22;4.72;;;;;;;20.14;59.89;94024.31;5218295;22;20024;-81
2023/07/27 00:43:44;;;;;;;5.35;4.85;;;;;;;20.18;59.79;94014.81;5220040;22;20019;-79
2023/07/27 00:45:47;;;;;;;8.55;5.22;;;;;;;20.18;59.65;94018.28;5227701;22;20046;-80
2023/07/27 00:47:48;;;;;;;4.90;4.38;;;;;;;20.16;59.66;94015.06;5201308;22;20083;-82
2023/07/27 00:49:50;;;;;;;5.60;4.30;;;;;;;20.17;59.54;94013.19;5229830;22;20074;-80
2023/07/27 00:51:52;;;;;;;6.63;4.32;;;;;;;20.12;59.51;94007.78;5232549;22;20063;-77
2023/07/27 00:53:54;;;;;;;5.28;4.75;;;;;;;20.14;59.55;94009.16;5204249;22;20095;-78
2023/07/27 00:55:57;;;;;;;5.20;4.40;;;;;;;20.16;59.00;94014.25;5230660;22;20075;-79
2023/07/27 00:57:59;;;;;;;7.22;5.07;;;;;;;20.07;59.31;94015.63;5182772;22;20012;-79
2023/07/27 01:00:01;;;;;;;5.03;3.63;;;;;;;20.11;59.09;94022.09;5207252;22;20047;-80
2023/07/27 01:02:04;;;;;;;9.35;4.10;;;;;;;19.98;59.09;94018.69;5231969;22;20023;-81
2023/07/27 01:04:05;;;;;;;5.32;3.58;;;;;;;19.94;58.75;94017.53;5230745;22;20042;-81
2023/07/27 01:06:07;;;;;;;3.90;3.17;;;;;;;19.79;58.55;94012.69;5204285;22;20362;-81
2023/07/27 01:08:09;;;;;;;8.63;3.80;;;;;;;19.78;58.74;94016.38;5232733;22;20075;-82
2023/07/27 01:10:11;;;;;;;5.47;2.83;;;;;;;19.82;58.37;94022.84;5206085;22;20012;-80
2023/07/27 01:12:20;;;;;;;4.18;2.60;;;;;;;19.95;58.13;94035.06;5204104;22;20034;-79
2023/07/27 01:14:36;;;;;;;3.28;2.75;;;;;;;19.73;58.73;94042.03;5164972;22;20035;-84
2023/07/27 01:16:49;;;;;;;5.50;3.38;;;;;;;19.61;59.20;94036.69;5214522;22;20510;-81
2023/07/27 01:19:28;;;;;;;3.45;2.83;;;;;;;19.48;59.50;94032.41;5215259;22;20101;-81
2023/07/27 01:21:34;;;;;;;5.00;2.70;;;;;;;19.28;59.71;94030.09;5215365;22;20026;-83
2023/07/27 01:23:48;;;;;;;3.47;2.53;;;;;;;19.26;59.29;94034.81;5188544;22;20035;-80
2023/07/27 01:26:01;;;;;;;;;;;;;;;19.30;59.42;94028.00;5214535;22;20024;-81
2023/07/27 01:28:34;;;;;;;5.85;2.60;;;;;;;19.24;59.50;94031.56;5215740;22;19915;-81
2023/07/27 01:31:05;;;;;;;2.92;2.15;;;;;;;19.28;59.15;94030.09;5214965;22;20031;-81
2023/07/27 01:33:10;;;;;;;3.20;2.30;;;;;;;19.18;59.37;94043.09;5163595;23;20644;-82
2023/07/27 01:35:14;;;;;;;5.43;2.58;;;;;;;18.99;59.70;94031.75;5220806;22;20108;-81
2023/07/27 01:37:17;;;;;;;3.28;2.50;;;;;;;19.03;59.52;94030.25;5191778;22;20525;-80
2023/07/27 01:39:19;;;;;;;2.97;2.67;;;;;;;18.98;59.59;94043.41;5162260;22;20024;-80
2023/07/27 01:41:23;;;;;;;5.40;2.60;;;;;;;18.96;59.95;94034.88;5186274;22;20035;-82
2023/07/27 01:43:26;;;;;;;6.60;2.90;;;;;;;19.14;59.51;94042.75;5214500;22;20074;-80
2023/07/27 01:45:29;;;;;;;3.00;2.53;;;;;;;19.21;59.37;94030.19;5212892;22;20138;-81
2023/07/27 01:47:31;;;;;;;5.35;2.67;;;;;;;19.17;59.38;94030.88;5184168;22;20079;-82
2023/07/27 01:49:36;;;;;;;6.22;2.88;;;;;;;19.11;59.75;94043.22;5186817;22;20106;-83
2023/07/27 01:51:39;;;;;;;4.32;3.10;;;;;;;18.97;60.31;94028.50;5186319;22;20102;-82
2023/07/27 01:53:42;;;;;;;4.45;3.20;;;;;;;19.11;59.80;94037.09;5160008;22;20066;-84
2023/07/27 01:55:44;;;;;;;3.30;3.00;;;;;;;18.75;61.01;94033.50;5213109;22;20084;-84
2023/07/27 01:57:46;;;;;;;3.80;3.00;;;;;;;18.74;61.45;94053.94;5186895;22;20020;-81
2023/07/27 01:59:49;;;;;;;5.95;3.50;;;;;;;18.75;61.36;94044.13;5186800;22;20083;-80
2023/07/27 02:01:51;;;;;;;4.10;3.30;;;;;;;18.75;61.23;94047.56;5211381;22;20085;-81
2023/07/27 02:03:55;;;;;;;8.48;3.53;;;;;;;18.94;60.84;94058.97;5185528;22;20047;-83
2023/07/27 02:05:57;;;;;;;4.40;3.33;;;;;;;18.91;60.92;94064.75;5186299;22;20066;-83
2023/07/27 02:07:59;;;;;;;5.57;3.47;;;;;;;18.98;60.63;94067.31;5214283;22;20033;-80
2023/07/27 02:10:04;;;;;;;4.20;3.80;;;;;;;19.01;60.42;94069.50;5215330;22;20098;-81
2023/07/27 02:12:11;;;;;;;5.53;4.40;;;;;;;19.00;60.59;94070.53;5216219;22;20040;-80
2023/07/27 02:14:17;;;;;;;10.13;4.55;;;;;;;18.83;61.25;94071.16;5202777;22;20102;-82
2023/07/27 02:16:26;;;;;;;4.40;4.00;;;;;;;18.89;61.13;94071.31;5213855;22;20546;-82
2023/07/27 02:18:29;;;;;;;4.57;4.18;;;;;;;18.93;60.96;94075.94;5186392;22;20054;-81
2023/07/27 02:20:34;;;;;;;6.60;4.75;;;;;;;18.97;60.62;94079.78;5160604;23;20505;-82
2023/07/27 02:22:36;;;;;;;5.57;5.07;;;;;;;19.00;60.60;94081.16;5186479;22;20124;-81
2023/07/27 02:24:38;;;;;;;7.40;5.50;;;;;;;18.83;61.00;94084.44;5186179;22;20205;-82
2023/07/27 02:26:42;;;;;;;10.90;5.78;;;;;;;18.76;61.41;94081.03;5213322;22;20022;-81
2023/07/27 02:28:43;;;;;;;7.00;6.40;;;;;;;18.57;61.91;94096.19;5161725;23;20055;-80
2023/07/27 02:30:46;;;;;;;5.97;5.47;;;;;;;18.63;61.88;94094.50;5212988;22;20031;-82
2023/07/27 02:32:48;;;;;;;6.95;6.35;;;;;;;18.59;61.99;94094.13;5187106;22;20118;-82
2023/07/27 02:34:50;;;;;;;7.55;6.95;;;;;;;18.72;61.40;94097.63;5214955;22;20047;-82
2023/07/27 02:36:52;;;;;;;13.88;6.95;;;;;;;18.69;61.49;94098.06;5187540;22;20051;-81
2023/07/27 02:38:53;;;;;;;7.43;6.60;;;;;;;18.63;61.50;94110.41;5188466;22;20099;-82
2023/07/27 02:40:55;;;;;;;7.82;7.10;;;;;;;18.52;61.73;94104.00;5189068;22;20054;-82
2023/07/27 02:42:57;;;;;;;10.30;6.65;;;;;;;18.56;61.55;94105.19;5216999;22;20029;-81
2023/07/27 02:44:59;;;;;;;7.68;6.63;;;;;;;18.62;61.61;94103.47;5188694;22;20070;-80
2023/07/27 02:47:04;;;;;;;9.63;6.53;;;;;;;18.66;61.35;94115.25;5190533;22;20035;-81
2023/07/27 02:49:05;;;;;;;7.38;6.68;;;;;;;18.76;61.33;94120.84;5219311;22;20023;-81
2023/07/27 02:51:07;;;;;;;7.22;6.45;;;;;;;18.80;60.69;94127.34;5223049;22;20474;-81
2023/07/27 02:53:09;;;;;;;7.82;6.20;;;;;;;18.81;60.41;94113.03;5197869;22;20106;-81
2023/07/27 02:55:11;;;;;;;7.13;6.25;;;;;;;18.78;60.02;94124.13;5187151;22;20320;-83
2023/07/27 02:57:14;;;;;;;7.38;6.63;;;;;;;18.71;60.17;94130.50;5215935;22;20031;-82
2023/07/27 02:59:16;;;;;;;6.13;5.63;;;;;;;18.72;60.17;94140.09;5189495;22;20123;-81
2023/07/27 03:01:18;;;;;;;6.90;6.30;;;;;;;18.69;59.79;94141.34;5187622;22;20517;-80
2023/07/27 03:03:21;;;;;;;7.32;6.63;;;;;;;18.66;59.55;94135.66;5191841;22;20028;-81
2023/07/27 03:05:23;;;;;;;6.70;6.10;;;;;;;18.65;59.69;94142.00;5190771;22;20032;-82
2023/07/27 03:07:24;;;;;;;7.00;6.40;;;;;;;18.70;59.31;94153.56;5167066;22;20420;-79
2023/07/27 03:09:26;;;;;;;7.20;6.60;;;;;;;18.80;59.06;94148.59;5223654;22;20049;-81
2023/07/27 03:11:28;;;;;;;8.77;6.13;;;;;;;18.88;58.67;94162.56;5197356;22;20111;-80
2023/07/27 03:13:31;;;;;;;6.88;6.28;;;;;;;18.96;58.29;94155.13;5220293;22;20068;-80
2023/07/27 03:15:32;;;;;;;12.47;7.43;;;;;;;18.96;57.86;94162.28;5188557;22;20027;-82
2023/07/27 03:17:34;;;;;;;6.57;5.90;;;;;;;18.82;57.74;94172.22;5215639;22;20046;-82
2023/07/27 03:19:36;;;;;;;6.82;6.10;;;;;;;18.79;57.81;94162.88;5189715;22;20085;-81
2023/07/27 03:21:38;;;;;;;6.13;5.63;;;;;;;18.74;57.20;94173.31;5217719;22;20308;-81
2023/07/27 03:23:40;;;;;;;6.53;6.03;;;;;;;18.60;57.70;94179.81;5218504;22;20054;-81
2023/07/27 03:25:41;;;;;;;6.53;5.93;;;;;;;18.60;57.74;94174.50;5189929;22;20042;-81
2023/07/27 03:27:43;;;;;;;7.00;6.22;;;;;;;18.66;57.42;94172.81;5188117;22;20081;-81
2023/07/27 03:29:45;;;;;;;6.45;5.82;;;;;;;18.55;56.91;94171.72;5163418;23;20020;-82
2023/07/27 03:31:47;;;;;;;6.65;5.70;;;;;;;18.43;57.24;94168.97;5187371;22;20579;-84
2023/07/27 03:33:49;;;;;;;6.38;5.88;;;;;;;18.45;57.37;94166.09;5188295;22;20023;-82
2023/07/27 03:35:51;;;;;;;6.53;5.78;;;;;;;18.50;57.40;94167.06;5215072;22;20023;-81
2023/07/27 03:37:53;;;;;;;6.00;5.43;;;;;;;18.51;56.75;94171.34;5216335;22;20031;-83
2023/07/27 03:39:55;;;;;;;7.18;6.20;;;;;;;18.51;57.11;94166.03;5216245;22;20027;-84
2023/07/27 03:41:56;;;;;;;7.10;5.80;;;;;;;18.62;55.90;94172.44;5215703;22;20425;-82
2023/07/27 03:43:58;;;;;;;6.80;5.97;;;;;;;18.77;55.96;94183.47;5215682;22;20159;-83
2023/07/27 03:46:00;;;;;;;6.00;5.40;;;;;;;18.73;55.53;94184.16;5213584;22;20636;-81
2023/07/27 03:48:02;;;;;;;5.35;4.85;;;;;;;18.60;55.36;94193.06;5215568;22;20634;-82
2023/07/27 03:50:05;;;;;;;8.20;5.30;;;;;;;18.56;55.43;94195.38;5215127;22;20023;-79
2023/07/27 03:52:07;;;;;;;7.18;5.10;;;;;;;18.62;55.54;94183.84;5215063;22;20023;-82
2023/07/27 03:54:08;;;;;;;5.80;5.30;;;;;;;18.68;55.26;94191.97;5215143;22;20380;-80
2023/07/27 03:56:10;;;;;;;5.70;5.15;;;;;;;18.72;55.12;94193.16;5216546;22;20027;-79
2023/07/27 03:58:12;;;;;;;5.60;5.10;;;;;;;18.79;55.00;94193.91;5189956;22;20020;-84
2023/07/27 04:00:17;;;;;;;4.97;4.53;;;;;;;18.78;54.74;94203.72;5189491;22;20094;-80
2023/07/27 04:02:19;;;;;;;5.60;5.05;;;;;;;18.89;54.26;94215.44;5218711;22;20090;-82
2023/07/27 04:04:20;;;;;;;6.72;4.80;;;;;;;18.97;53.67;94206.34;5189418;22;20402;-84
2023/07/27 04:06:24;;;;;;;4.40;3.97;;;;;;;18.88;52.63;94210.34;5216317;22;20090;-83
2023/07/27 04:08:26;;;;;;;3.90;3.50;;;;;;;18.81;52.79;94202.47;5214866;22;20428;-81
2023/07/27 04:10:29;;;;;;;5.43;3.55;;;;;;;18.80;52.63;94222.88;5216414;22;20022;-82
2023/07/27 04:12:31;;;;;;;7.88;3.40;;;;;;;18.84;52.59;94215.28;5215943;22;20073;-81
2023/07/27 04:14:33;;;;;;;6.88;3.50;;;;;;;18.78;52.17;94224.16;5215138;22;20082;-81
2023/07/27 04:16:36;;;;;;;6.82;3.10;;;;;;;18.76;52.00;94224.31;5213477;22;20034;-83
2023/07/27 04:18:38;;;;;;;3.50;2.70;;;;;;;18.68;51.88;94235.22;5188173;22;20408;-83
2023/07/27 04:20:40;;;;;;;4.15;2.78;;;;;;;18.77;51.67;94233.91;5215530;22;20072;-83
2023/07/27 04:22:43;;;;;;;3.92;2.10;;;;;;;18.58;51.45;94229.63;5190074;22;20535;-83
2023/07/27 04:24:45;;;;;;;2.72;2.53;;;;;;;18.52;51.58;94231.31;5191098;22;20061;-82
2023/07/27 04:26:48;;;;;;;3.22;2.17;;;;;;;18.19;51.84;94264.22;5222654;22;20027;-83
2023/07/27 04:28:50;;;;;;;3.72;2.13;;;;;;;18.05;52.28;94261.91;5195884;22;20736;-83
2023/07/27 04:30:52;;;;;;;3.95;2.20;;;;;;;18.00;52.25;94270.50;5187517;22;20024;-83
2023/07/27 04:32:54;;;;;;;4.05;2.05;;;;;;;17.97;52.18;94277.06;5215348;22;20026;-82
2023/07/27 04:34:56;;;;;;;3.28;2.10;;;;;;;17.69;52.71;94280.06;5216462;22;20019;-81
2023/07/27 04:36:57;;;;;;;4.07;1.80;;;;;;;17.76;52.46;94287.97;5216357;22;20120;-83
2023/07/27 04:38:59;;;;;;;4.30;2.50;;;;;;;17.70;52.59;94283.50;5216180;22;20061;-81
2023/07/27 04:41:01;;;;;;;2.95;2.17;;;;;;;17.84;52.51;94286.94;5216559;22;20106;-81
2023/07/27 04:43:03;;;;;;;4.50;2.22;;;;;;;17.87;52.49;94273.25;5215127;22;20316;-81
2023/07/27 04:45:05;;;;;;;4.03;2.40;;;;;;;17.94;52.03;94290.75;5215262;22;20058;-79
2023/07/27 04:47:07;;;;;;;4.05;2.10;;;;;;;17.95;51.88;94275.66;5215151;22;20115;-82
2023/07/27 04:49:09;;;;;;;2.90;2.10;;;;;;;17.90;51.85;94286.09;5190811;22;20034;-83
2023/07/27 04:51:11;;;;;;;4.20;2.33;;;;;;;17.84;51.83;94289.59;5217723;22;20027;-82
2023/07/27 04:53:13;;;;;;;4.25;2.40;;;;;;;17.84;52.09;94286.94;5191827;22;20047;-83
2023/07/27 04:55:17;;;;;;;3.70;2.10;;;;;;;17.88;51.95;94283.66;5218299;22;20041;-85
2023/07/27 04:57:19;;;;;;;6.68;2.60;;;;;;;17.92;51.99;94289.34;5221417;22;20042;-85
2023/07/27 04:59:20;;;;;;;3.67;2.50;;;;;;;17.90;52.16;94291.38;5222483;22;20196;-83
2023/07/27 05:01:22;;;;;;;4.72;2.40;;;;;;;18.03;51.73;94282.53;5224235;22;20062;-83
2023/07/27 05:03:24;;;;;;;4.50;2.40;;;;;;;18.09;51.74;94285.13;5220561;22;20067;-84
2023/07/27 05:05:26;;;;;;;4.85;2.78;;;;;;;18.03;51.53;94301.09;5189518;22;20030;-82
2023/07/27 05:07:29;;;;;;;5.20;2.50;;;;;;;17.99;51.87;94285.59;5191674;22;20024;-84
2023/07/27 05:09:30;;;;;;;2.65;2.30;;;;;;;18.12;51.48;94307.75;5192138;22;20031;-87
2023/07/27 05:11:32;;;;;;;4.35;2.60;;;;;;;18.12;51.10;94297.13;5188175;22;20023;-83
2023/07/27 05:13:35;;;;;;;6.97;2.70;;;;;;;17.98;51.66;94305.19;5189153;22;20439;-83
2023/07/27 05:15:39;;;;;;;5.80;2.72;;;;;;;18.03;51.23;94309.03;5215684;22;20038;-82
2023/07/27 05:17:41;;;;;;;4.85;2.63;;;;;;;18.19;51.04;94311.16;5163093;23;20039;-86
2023/07/27 05:19:43;;;;;;;4.45;2.33;;;;;;;18.10;51.34;94323.06;5215699;22;20288;-84
2023/07/27 05:21:45;;;;;;;8.85;3.10;;;;;;;18.22;50.97;94310.72;5188995;22;20038;-82
2023/07/27 05:23:47;;;;;;;6.15;2.58;;;;;;;18.37;50.59;94319.19;5215747;22;20042;-84
2023/07/27 05:25:48;;;;;;;4.72;2.80;;;;;;;18.28;50.77;94315.16;5188321;22;20027;-81
2023/07/27 05:27:50;;;;;;;7.18;2.80;;;;;;;18.24;50.72;94323.75;5215664;22;20049;-84
2023/07/27 05:29:52;;;;;;;2.88;2.50;;;;;;;18.37;50.81;94327.13;5216440;22;20065;-81
2023/07/27 05:31:54;;;;;;;4.13;2.63;;;;;;;18.32;50.49;94328.78;5215846;22;20030;-83
2023/07/27 05:33:56;;;;;;;6.00;3.10;;;;;;;17.93;51.33;94336.00;5216425;22;20027;-84
2023/07/27 05:35:58;;;;;;;5.03;2.80;;;;;;;17.84;52.20;94329.34;5190571;22;20417;-82
2023/07/27 05:38:00;;;;;;;5.53;2.72;;;;;;;17.94;51.93;94335.78;5217599;22;20402;-84
2023/07/27 05:40:04;;;;;;;4.13;3.20;;;;;;;17.98;52.10;94328.22;5190350;22;20510;-82
2023/07/27 05:42:06;;;;;;;7.50;2.60;;;;;;;18.01;51.31;94325.16;5190447;22;20038;-83
2023/07/27 05:44:08;;;;;;;4.53;2.60;;;;;;;18.00;51.85;94334.94;5216987;22;20027;-82
2023/07/27 05:46:12;;;;;;;8.15;2.63;;;;;;;17.69;52.42;94333.03;5186992;22;20030;-81
2023/07/27 05:48:13;;;;;;;7.13;3.25;;;;;;;17.70;52.88;94344.44;5189078;22;20039;-82
2023/07/27 05:50:17;;;;;;;6.68;3.03;;;;;;;17.80;52.97;94356.22;5215636;22;20042;-84
2023/07/27 05:52:19;;;;;;;3.28;2.47;;;;;;;17.90;52.46;94360.28;5215485;22;20118;-85
2023/07/27 05:54:21;;;;;;;4.05;2.65;;;;;;;17.96;52.57;94354.94;5215990;22;20039;-83
2023/07/27 05:56:23;;;;;;;3.33;2.35;;;;;;;17.94;52.70;94351.69;5216894;22;20089;-83
2023/07/27 05:58:25;;;;;;;10.05;3.42;;;;;;;17.98;52.73;94358.19;5190021;22;20095;-85
2023/07/27 06:00:27;;;;;;;4.47;2.63;;;;;;;18.03;52.39;94356.75;5215927;22;20023;-84
2023/07/27 06:02:29;;;;;;;7.50;2.85;;;;;;;18.09;52.19;94369.13;5215630;22;20457;-82
2023/07/27 06:04:31;;;;;;;4.60;2.75;;;;;;;17.98;51.64;94344.94;5215612;22;20027;-83
2023/07/27 06:06:33;;;;;;;4.07;2.65;;;;;;;18.04;51.70;94350.41;5216290;22;20023;-83
2023/07/27 06:08:35;;;;;;;3.95;2.47;;;;;;;18.23;51.44;94360.06;5164308;22;20103;-84
2023/07/27 06:10:37;;;;;;;4.18;2.30;;;;;;;18.24;50.88;94347.63;5189689;22;20024;-81
2023/07/27 06:12:39;;;;;;;5.65;2.22;;;;;;;18.47;49.91;94357.66;5215151;22;20039;-84
2023/07/27 06:14:41;;;;;;;6.88;2.70;;;;;;;18.66;49.21;94363.84;5163886;22;20031;-82
2023/07/27 06:16:43;;;;;;;3.45;2.40;;;;;;;18.73;48.21;94352.13;5214679;22;20421;-83
2023/07/27 06:18:45;;;;;;;6.47;2.03;;;;;;;18.76;48.22;94354.34;5164011;23;20027;-85
2023/07/27 06:20:47;;;;;;;5.20;2.15;;;;;;;18.91;48.50;94359.34;5216598;22;20473;-85
2023/07/27 06:25:09;;;;;;;4.35;1.95;;;;;;;19.16;47.19;94351.31;5192569;22;20031;-82
2023/07/27 06:27:12;;;;;;;4.77;2.20;;;;;;;19.19;46.93;94355.41;5189524;22;20045;-82
2023/07/27 06:29:14;;;;;;;5.85;2.40;;;;;;;19.34;46.37;94350.53;5189470;22;20035;-82
2023/07/27 06:31:16;;;;;;;5.57;1.70;;;;;;;19.22;45.75;94346.97;5216083;22;20407;-82
2023/07/27 06:33:18;;;;;;;5.38;1.95;;;;;;;19.36;45.44;94348.47;5216915;22;20132;-82
2023/07/27 06:35:20;;;;;;;6.35;2.22;;;;;;;19.26;44.97;94350.00;5217514;22;20030;-82
2023/07/27 06:37:23;;;;;;;2.97;1.95;;;;;;;19.18;45.89;94357.22;5221428;22;20049;-81
2023/07/27 06:39:25;;;;;;;3.35;2.25;;;;;;;19.43;45.08;94353.69;5194554;22;20525;-83
2023/07/27 06:41:26;;;;;;;4.82;2.00;;;;;;;19.68;44.19;94350.13;5225442;22;20088;-84
2023/07/27 06:43:29;;;;;;;3.40;2.20;;;;;;;19.56;44.55;94347.41;5219628;22;20053;-83
2023/07/27 06:45:31;;;;;;;4.00;2.50;;;;;;;19.63;44.20;94342.81;5172422;22;20020;-83
2023/07/27 06:47:33;;;;;;;2.67;1.95;;;;;;;19.55;43.50;94351.94;5228158;22;20023;-81
2023/07/27 06:49:35;;;;;;;4.57;2.45;;;;;;;19.33;43.40;94354.19;5233714;22;20046;-82
2023/07/27 06:51:37;;;;;;;6.97;2.08;;;;;;;19.14;43.83;94356.03;5179657;22;20059;-82
2023/07/27 06:53:39;;;;;;;4.60;1.63;;;;;;;18.82;44.86;94340.25;5207217;22;20031;-85
2023/07/27 06:55:41;;;;;;;6.43;1.77;;;;;;;18.48;45.99;94344.19;5207234;22;20024;-80
2023/07/27 06:57:43;;;;;;;7.53;2.50;;;;;;;18.87;45.36;94333.47;5182908;22;20012;-83
2023/07/27 06:59:45;;;;;;;3.03;1.70;;;;;;;19.07;44.45;94323.44;5206467;22;20035;-82
2023/07/27 07:01:47;;;;;;;5.20;2.10;;;;;;;19.39;43.97;94326.75;5232213;22;20023;-81
2023/07/27 07:03:48;;;;;;;6.15;2.17;;;;;;;19.69;43.41;94330.50;5233091;22;20034;-83
2023/07/27 07:05:50;;;;;;;5.85;2.13;;;;;;;19.89;42.78;94325.75;5233655;22;20042;-85
2023/07/27 07:07:52;;;;;;;4.75;2.22;;;;;;;19.95;42.59;94316.88;5205242;22;20024;-82
2023/07/27 07:09:54;;;;;;;5.20;2.10;;;;;;;20.01;42.40;94334.56;5206478;22;20030;-83
2023/07/27 07:11:57;;;;;;;2.63;1.67;;;;;;;20.00;42.03;94326.81;5233294;22;20170;-81
2023/07/27 07:13:59;;;;;;;5.75;1.90;;;;;;;19.79;42.56;94328.97;5198974;22;20038;-85
2023/07/27 07:16:03;;;;;;;6.93;4.70;;;;;;;19.36;42.81;94326.38;5217391;22;20045;-83
2023/07/27 07:18:05;;;;;;;7.18;3.72;;;;;;;19.38;43.71;94325.16;5216098;22;20048;-82
2023/07/27 07:20:09;;;;;;;9.05;4.82;;;;;;;19.09;44.38;94342.63;5188267;22;20070;-83
2023/07/27 07:22:11;;;;;;;5.97;3.28;;;;;;;19.03;44.58;94332.88;5189371;22;20031;-85
2023/07/27 07:24:13;;;;;;;10.98;3.00;;;;;;;18.83;45.17;94343.69;5190193;22;20104;-83
2023/07/27 07:26:14;;;;;;;4.40;2.22;;;;;;;19.05;44.14;94325.50;5217577;22;20088;-85
2023/07/27 07:28:18;;;;;;;9.05;4.57;;;;;;;18.90;44.62;94331.16;5223186;22;20406;-84
2023/07/27 07:30:20;;;;;;;6.90;2.78;;;;;;;18.77;44.51;94328.63;5216768;22;20447;-84
2023/07/27 07:32:23;;;;;;;8.98;3.30;;;;;;;18.70;45.62;94330.53;5190246;22;20402;-85
2023/07/27 07:34:26;;;;;;;10.68;4.45;;;;;;;18.87;45.02;94328.97;5217645;22;20042;-84
2023/07/27 07:36:29;;;;;;;9.45;4.18;;;;;;;18.78;44.62;94333.75;5217301;22;20023;-84
2023/07/27 07:38:30;;;;;;;7.45;2.80;;;;;;;18.42;45.16;94324.63;5217001;22;20038;-82
2023/07/27 07:40:32;;;;;;;7.80;3.50;;;;;;;18.85;44.72;94325.72;5189872;22;20090;-83
2023/07/27 07:42:34;;;;;;;7.28;2.83;;;;;;;19.20;44.10;94323.28;5190043;22;20051;-82
2023/07/27 07:44:36;;;;;;;3.33;1.92;;;;;;;19.49;43.12;94325.41;5193377;22;20023;-84
2023/07/27 07:46:38;;;;;;;10.13;2.88;;;;;;;19.62;43.04;94309.31;5221755;22;20363;-83
2023/07/27 07:48:40;;;;;;;7.82;3.33;;;;;;;19.21;43.58;94310.84;5225920;22;20260;-84
2023/07/27 07:50:42;;;;;;;12.23;3.35;;;;;;;18.61;44.75;94330.00;5176830;22;20040;-84
2023/07/27 07:52:47;;;;;;;9.63;2.22;;;;;;;18.90;44.52;94328.50;5232666;22;20034;-83
2023/07/27 07:54:52;;;;;;;7.55;2.38;;;;;;;19.26;43.75;94331.44;5206818;22;20047;-83
2023/07/27 07:56:54;;;;;;;8.98;1.98;;;;;;;19.44;43.84;94328.75;5197389;22;20028;-82
2023/07/27 07:58:56;;;;;;;18.47;4.10;;;;;;;19.76;43.38;94341.88;5225531;22;20094;-84
2023/07/27 08:00:58;;;;;;;7.45;2.13;;;;;;;19.96;42.76;94331.78;5219947;22;20049;-82
2023/07/27 08:02:59;;;;;;;2.97;1.60;;;;;;;20.21;42.75;94323.63;5192165;22;20024;-85
2023/07/27 08:05:03;;;;;;;6.82;2.58;;;;;;;19.85;42.65;94340.50;5190394;22;20020;-84
2023/07/27 08:07:05;;;;;;;9.10;1.92;;;;;;;19.41;42.49;94350.44;5218679;22;20727;-85
2023/07/27 08:09:08;;;;;;;5.50;2.38;;;;;;;19.24;43.73;94345.72;5189321;22;20030;-83
2023/07/27 08:11:10;;;;;;;7.95;2.60;;;;;;;19.40;43.24;94349.66;5191679;22;20430;-83
2023/07/27 08:13:14;;;;;;;8.20;2.70;;;;;;;19.26;43.37;94355.31;5217601;22;20090;-83
2023/07/27 08:15:17;;;;;;;10.40;2.67;;;;;;;18.93;43.95;94337.88;5216349;22;20110;-83
2023/07/27 08:17:19;;;;;;;8.65;1.95;;;;;;;19.06;43.72;94350.19;5216401;22;20102;-85
2023/07/27 08:19:22;;;;;;;9.90;2.90;;;;;;;18.87;44.19;94349.41;5217579;22;20019;-85
2023/07/27 08:21:24;;;;;;;17.00;2.33;;;;;;;19.36;43.68;94342.31;5216864;22;20338;-82
2023/07/27 08:23:26;;;;;;;4.25;2.30;;;;;;;19.30;43.30;94330.75;5217363;22;20119;-83
2023/07/27 08:25:28;;;;;;;7.13;2.08;;;;;;;19.02;43.43;94353.31;5188495;22;20023;-83
2023/07/27 08:27:32;;;;;;;5.60;1.92;;;;;;;19.33;43.51;94337.47;5190366;22;20147;-83
2023/07/27 08:29:34;;;;;;;7.88;2.58;;;;;;;19.61;43.66;94340.38;5217378;22;20127;-86
2023/07/27 08:31:37;;;;;;;19.42;2.45;;;;;;;19.29;42.53;94354.88;5190316;22;20054;-85
2023/07/27 08:33:39;;;;;;;13.40;2.60;;;;;;;19.56;42.65;94352.72;5193568;22;20023;-85
2023/07/27 08:35:40;;;;;;;13.70;3.50;;;;;;;19.56;42.36;94342.91;5191175;22;20355;-86
2023/07/27 08:37:42;;;;;;;10.60;4.38;;;;;;;19.21;43.03;94378.03;5192398;22;20143;-84
2023/07/27 08:39:44;;;;;;;13.90;3.15;;;;;;;19.34;42.91;94358.50;5194848;22;20038;-86
2023/07/27 08:41:46;;;;;;;15.98;2.78;;;;;;;19.63;42.57;94361.41;5222488;22;20107;-84
2023/07/27 08:43:48;;;;;;;14.75;2.85;;;;;;;19.64;42.30;94360.41;5192521;22;20388;-82
2023/07/27 08:45:50;;;;;;;6.93;2.10;;;;;;;19.16;43.41;94363.78;5217356;22;20031;-85
2023/07/27 08:47:53;;;;;;;8.40;2.13;;;;;;;19.31;43.57;94352.81;5191336;22;20078;-83
2023/07/27 08:49:55;;;;;;;11.82;2.20;;;;;;;19.66;42.63;94371.63;5191224;22;20044;-85
2023/07/27 08:51:59;;;;;;;41.88;3.30;;;;;;;19.73;42.45;94366.25;5201462;22;20025;-84
2023/07/27 08:54:02;;;;;;;9.27;2.00;;;;;;;19.92;42.16;94365.19;5200129;22;20079;-84
2023/07/27 08:56:04;;;;;;;8.02;1.95;;;;;;;19.56;42.80;94385.41;5197749;22;20023;-81
2023/07/27 08:58:07;;;;;;;8.60;1.80;;;;;;;19.18;44.06;94361.72;5194764;22;20034;-84
2023/07/27 09:00:09;;;;;;;8.67;2.23;;;;;;;19.62;43.00;94360.63;5219663;22;20081;-83
2023/07/27 09:02:11;;;;;;;11.30;2.03;;;;;;;19.94;42.47;94354.31;5190329;22;20118;-84
2023/07/27 09:04:13;;;;;;;19.95;2.22;;;;;;;20.04;41.66;94350.06;5191850;22;20448;-85
2023/07/27 09:06:39;;;;;;;16.77;2.65;;;;;;;19.70;42.65;94362.16;5221298;22;20026;-82
2023/07/27 09:08:42;;;;;;;16.83;2.67;;;;;;;19.41;43.63;94342.47;5198506;22;20023;-84
2023/07/27 09:10:44;;;;;;;13.98;2.50;;;;;;;19.80;43.16;94343.06;5193593;22;20495;-83
2023/07/27 09:12:46;;;;;;;10.18;2.25;;;;;;;20.07;42.53;94340.00;5165536;22;20067;-85
2023/07/27 09:14:48;;;;;;;15.45;2.55;;;;;;;20.01;42.95;94349.72;5190875;22;20030;-83
2023/07/27 09:16:50;;;;;;;12.60;3.10;;;;;;;19.70;43.86;94350.75;5189244;22;20024;-83
2023/07/27 09:19:12;;;;;;;13.93;2.95;;;;;;;19.94;43.42;94349.81;5163068;23;20024;-85
2023/07/27 09:21:15;;;;;;;7.25;2.20;;;;;;;20.25;41.98;94347.94;5139422;23;20518;-83
2023/07/27 09:23:21;;;;;;;9.02;2.60;;;;;;;20.30;41.62;94348.06;5164786;23;20463;-85
2023/07/27 09:25:23;;;;;;;7.60;2.72;;;;;;;20.11;42.50;94365.13;5139396;23;20029;-86
2023/07/27 09:27:25;;;;;;;6.57;2.45;;;;;;;20.38;41.60;94363.69;5163753;23;20031;-85
2023/07/27 09:29:27;;;;;;;6.95;2.38;;;;;;;20.56;41.42;94368.13;5163253;23;20035;-88
2023/07/27 09:31:36;;;;;;;14.30;1.65;;;;;;;20.35;41.54;94358.84;5137931;23;20033;-86
2023/07/27 09:33:38;;;;;;;11.40;3.03;;;;;;;20.53;40.94;94378.44;5163949;23;20069;-86
2023/07/27 09:35:40;;;;;;;6.45;2.33;;;;;;;20.30;40.54;94368.53;5164916;23;20059;-85
2023/07/27 09:37:51;;;;;;;12.60;2.45;;;;;;;20.18;41.03;94389.78;5166452;22;20051;-87
2023/07/27 09:40:08;;;;;;;12.65;2.42;;;;;;;20.30;41.30;94379.19;5191136;22;20023;-84